createdAt,value
2023-01-20T00:00:54.583Z,94844.84
2023-01-20T00:01:56.439Z,94842.16
2023-01-20T00:02:59.313Z,94848.31
2023-01-20T00:04:01.331Z,94846.38
2023-01-20T00:05:04.673Z,94855.63
2023-01-20T00:06:07.518Z,94856.38
2023-01-20T00:07:11.765Z,94851.00
2023-01-20T00:08:13.636Z,94855.63
2023-01-20T00:09:18.095Z,94856.38
2023-01-20T00:10:20.052Z,94849.47
2023-01-20T00:11:23.475Z,94854.06
2023-01-20T00:12:25.308Z,94853.28
2023-01-20T00:13:28.186Z,94854.06
2023-01-20T00:14:30.041Z,94851.38
2023-01-20T00:15:32.929Z,94848.66
2023-01-20T00:16:34.837Z,94854.84
2023-01-20T00:17:37.783Z,94851.38
2023-01-20T00:18:40.807Z,94851.00
2023-01-20T00:19:43.683Z,94856.41
2023-01-20T00:20:45.644Z,94855.63
2023-01-20T00:21:48.581Z,94855.22
2023-01-20T00:22:51.865Z,94853.28
2023-01-20T00:23:54.859Z,94856.00
2023-01-20T00:24:56.744Z,94857.91
2023-01-20T00:25:59.953Z,94859.06
2023-01-20T00:27:01.952Z,94855.59
2023-01-20T00:28:05.624Z,94860.97
2023-01-20T00:29:09.321Z,94860.97
2023-01-20T00:30:13.395Z,94863.69
2023-01-20T00:31:16.897Z,94854.84
2023-01-20T00:32:19.799Z,94870.22
2023-01-20T00:33:21.751Z,94868.28
2023-01-20T00:34:24.612Z,94872.16
2023-01-20T00:35:26.570Z,94866.78
2023-01-20T00:36:32.256Z,94868.66
2023-01-20T00:37:34.262Z,94867.91
2023-01-20T00:38:38.705Z,94865.22
2023-01-20T00:39:40.643Z,94863.28
2023-01-20T00:40:43.831Z,94863.28
2023-01-20T00:41:45.664Z,94869.47
2023-01-20T00:42:48.552Z,94864.06
2023-01-20T00:43:50.480Z,94864.84
2023-01-20T00:44:53.318Z,94872.16
2023-01-20T00:45:55.300Z,94870.22
2023-01-20T00:46:58.218Z,94870.22
2023-01-20T00:48:00.167Z,94868.28
2023-01-20T00:49:03.050Z,94867.13
2023-01-20T00:50:05.884Z,94868.66
2023-01-20T00:51:10.333Z,94866.78
2023-01-20T00:52:12.243Z,94872.16
2023-01-20T00:53:15.216Z,94866.78
2023-01-20T00:54:18.611Z,94872.53
2023-01-20T00:55:21.521Z,94872.91
2023-01-20T00:56:24.425Z,94877.16
2023-01-20T00:57:26.332Z,94867.91
2023-01-20T00:58:29.445Z,94874.06
2023-01-20T00:59:31.338Z,94877.94
2023-01-20T01:00:34.279Z,94884.09
2023-01-20T01:01:36.927Z,94884.06
2023-01-20T01:02:40.515Z,94880.97
2023-01-20T01:03:42.543Z,94880.97
2023-01-20T01:04:45.424Z,94886.38
2023-01-20T01:05:47.520Z,94883.66
2023-01-20T01:06:51.344Z,94883.66
2023-01-20T01:07:53.335Z,94879.44
2023-01-20T01:08:57.079Z,94882.50
2023-01-20T01:10:00.395Z,94885.59
2023-01-20T01:11:03.522Z,94890.22
2023-01-20T01:12:06.845Z,94891.34
2023-01-20T01:13:09.548Z,94888.28
2023-01-20T01:14:12.428Z,94890.22
2023-01-20T01:15:15.348Z,94888.66
2023-01-20T01:16:18.335Z,94895.59
2023-01-20T01:17:23.642Z,94893.69
2023-01-20T01:18:25.728Z,94895.59
2023-01-20T01:19:28.689Z,94894.06
2023-01-20T01:20:30.817Z,94889.47
2023-01-20T01:21:33.672Z,94889.47
2023-01-20T01:22:35.625Z,94891.75
2023-01-20T01:23:38.527Z,94901.00
2023-01-20T01:24:42.989Z,94891.34
2023-01-20T01:25:47.215Z,94899.03
2023-01-20T01:26:49.142Z,94899.44
2023-01-20T01:27:51.964Z,94897.91
2023-01-20T01:28:53.924Z,94890.97
2023-01-20T01:29:56.939Z,94896.75
2023-01-20T01:31:00.896Z,94893.28
2023-01-20T01:32:04.044Z,94898.66
2023-01-20T01:33:06.162Z,94892.53
2023-01-20T01:34:09.107Z,94899.84
2023-01-20T01:35:11.079Z,94902.13
2023-01-20T01:36:16.624Z,94893.28
2023-01-20T01:37:18.776Z,94897.91
2023-01-20T01:38:21.682Z,94896.75
2023-01-20T01:39:23.750Z,94897.91
2023-01-20T01:40:26.634Z,94907.50
2023-01-20T01:41:30.266Z,94900.59
2023-01-20T01:42:33.176Z,94907.91
2023-01-20T01:43:37.051Z,94908.69
2023-01-20T01:45:00.747Z,94903.28
2023-01-20T01:46:03.522Z,94909.06
2023-01-20T01:47:06.804Z,94902.53
2023-01-20T01:48:10.629Z,94913.69
2023-01-20T01:49:18.966Z,94906.38
2023-01-20T01:50:24.416Z,94907.16
2023-01-20T01:51:31.617Z,94907.16
2023-01-20T01:52:33.925Z,94908.69
2023-01-20T01:53:42.975Z,94903.28
2023-01-20T01:54:45.654Z,94903.28
2023-01-20T01:55:52.686Z,94907.91
2023-01-20T01:56:56.232Z,94901.72
2023-01-20T01:58:00.977Z,94910.59
2023-01-20T01:59:03.755Z,94909.06
2023-01-20T02:00:10.340Z,94913.66
2023-01-20T02:01:15.268Z,94910.97
2023-01-20T02:02:23.165Z,94911.75
2023-01-20T02:03:31.047Z,94905.59
2023-01-20T02:04:35.072Z,94905.59
2023-01-20T02:05:38.680Z,94912.50
2023-01-20T02:06:45.075Z,94909.44
2023-01-20T02:07:47.825Z,94913.66
2023-01-20T02:08:50.727Z,94904.06
2023-01-20T02:09:52.954Z,94908.28
2023-01-20T02:10:55.802Z,94907.16
2023-01-20T02:12:02.670Z,94909.06
2023-01-20T02:13:06.193Z,94913.28
2023-01-20T02:14:08.777Z,94910.22
2023-01-20T02:15:12.672Z,94900.97
2023-01-20T02:16:21.067Z,94910.97
2023-01-20T02:17:30.480Z,94910.22
2023-01-20T02:18:45.469Z,94907.88
2023-01-20T02:20:25.273Z,94914.84
2023-01-20T02:22:01.484Z,94910.22
2023-01-20T02:23:11.808Z,94910.97
2023-01-20T02:25:03.173Z,94910.97
2023-01-20T02:26:25.516Z,94910.97
2023-01-20T02:27:43.109Z,94913.66
2023-01-20T02:29:20.245Z,94909.44
2023-01-20T02:30:38.570Z,94914.44
2023-01-20T02:32:09.244Z,94911.75
2023-01-20T02:33:15.565Z,94905.59
2023-01-20T02:34:28.742Z,94914.44
2023-01-20T02:35:37.659Z,94912.13
2023-01-20T02:36:46.473Z,94914.84
2023-01-20T02:37:56.997Z,94913.66
2023-01-20T02:39:04.236Z,94920.22
2023-01-20T02:40:18.084Z,94912.13
2023-01-20T02:41:27.133Z,94913.28
2023-01-20T02:42:38.044Z,94918.66
2023-01-20T02:43:51.136Z,94915.97
2023-01-20T02:44:56.848Z,94914.03
2023-01-20T02:46:06.055Z,94913.28
2023-01-20T02:47:14.927Z,94917.53
2023-01-20T02:48:25.843Z,94914.03
2023-01-20T02:49:35.220Z,94924.03
2023-01-20T02:50:42.734Z,94926.75
2023-01-20T02:51:51.524Z,94924.81
2023-01-20T02:52:57.944Z,94929.44
2023-01-20T02:54:04.310Z,94926.75
2023-01-20T02:55:11.195Z,94929.44
2023-01-20T02:56:13.579Z,94924.03
2023-01-20T02:57:22.675Z,94931.00
2023-01-20T02:58:33.718Z,94936.38
2023-01-20T02:59:43.283Z,94925.22
2023-01-20T03:00:51.650Z,94932.13
2023-01-20T03:01:58.219Z,94929.44
2023-01-20T03:03:06.431Z,94928.66
2023-01-20T03:04:12.808Z,94934.06
2023-01-20T03:05:19.620Z,94934.06
2023-01-20T03:06:26.550Z,94935.97
2023-01-20T03:07:32.624Z,94934.06
2023-01-20T03:08:37.934Z,94930.19
2023-01-20T03:09:44.742Z,94934.44
2023-01-20T03:10:50.830Z,94936.38
2023-01-20T03:11:57.083Z,94939.44
2023-01-20T03:13:07.568Z,94936.75
2023-01-20T03:14:12.059Z,94937.50
2023-01-20T03:15:16.960Z,94940.22
2023-01-20T03:16:22.570Z,94947.13
2023-01-20T03:17:25.563Z,94940.97
2023-01-20T03:18:31.158Z,94947.88
2023-01-20T03:19:34.051Z,94943.25
2023-01-20T03:20:36.916Z,94947.88
2023-01-20T03:21:39.828Z,94944.06
2023-01-20T03:22:41.827Z,94943.25
2023-01-20T03:23:48.660Z,94949.44
2023-01-20T03:24:51.318Z,94953.28
2023-01-20T03:25:55.144Z,94952.13
2023-01-20T03:26:57.567Z,94945.19
2023-01-20T03:28:00.544Z,94953.28
2023-01-20T03:29:06.472Z,94952.50
2023-01-20T03:30:14.434Z,94953.28
2023-01-20T03:31:21.928Z,94952.13
2023-01-20T03:32:27.109Z,94953.28
2023-01-20T03:33:31.469Z,94957.53
2023-01-20T03:34:35.795Z,94953.28
2023-01-20T03:35:39.892Z,94957.13
2023-01-20T03:36:44.490Z,94957.16
2023-01-20T03:37:47.525Z,94955.59
2023-01-20T03:38:50.173Z,94964.03
2023-01-20T03:39:53.458Z,94955.97
2023-01-20T03:41:02.179Z,94969.44
2023-01-20T03:42:10.272Z,94964.03
2023-01-20T03:43:19.997Z,94965.59
2023-01-20T03:44:28.922Z,94968.66
2023-01-20T03:45:39.643Z,94977.13
2023-01-20T03:46:47.396Z,94966.38
2023-01-20T03:47:56.269Z,94965.59
2023-01-20T03:49:08.043Z,94968.66
2023-01-20T03:50:20.051Z,94974.41
2023-01-20T03:51:29.590Z,94976.34
2023-01-20T03:52:47.064Z,94987.13
2023-01-20T03:53:55.291Z,94975.59
2023-01-20T03:55:00.819Z,94978.28
2023-01-20T03:56:07.787Z,94987.13
2023-01-20T03:57:15.950Z,94985.19
2023-01-20T03:58:23.358Z,94982.50
2023-01-20T03:59:25.783Z,94990.56
2023-01-20T04:00:30.331Z,94987.13
2023-01-20T04:01:37.307Z,94982.50
2023-01-20T04:02:42.160Z,94982.50
2023-01-20T04:03:46.624Z,94979.81
2023-01-20T04:04:52.431Z,94979.44
2023-01-20T04:05:55.818Z,94983.66
2023-01-20T04:06:58.909Z,94985.59
2023-01-20T04:08:06.101Z,94985.19
2023-01-20T04:09:12.872Z,94987.13
2023-01-20T04:10:16.157Z,94984.41
2023-01-20T04:11:19.853Z,94991.72
2023-01-20T04:12:22.372Z,94994.44
2023-01-20T04:13:25.322Z,94994.44
2023-01-20T04:14:27.315Z,94991.72
2023-01-20T04:15:35.520Z,94989.03
2023-01-20T04:16:37.989Z,94995.56
2023-01-20T04:17:41.151Z,94997.50
2023-01-20T04:18:44.400Z,95003.63
2023-01-20T04:19:47.307Z,94997.50
2023-01-20T04:20:53.331Z,94999.41
2023-01-20T04:22:02.068Z,94998.66
2023-01-20T04:23:06.619Z,95004.81
2023-01-20T04:24:17.699Z,95007.50
2023-01-20T04:25:24.796Z,94999.41
2023-01-20T04:26:27.655Z,95004.81
2023-01-20T04:27:29.916Z,95014.03
2023-01-20T04:28:33.229Z,95006.38
2023-01-20T04:29:35.119Z,95005.19
2023-01-20T04:30:38.185Z,95009.81
2023-01-20T04:31:40.292Z,95010.59
2023-01-20T04:32:43.241Z,95009.03
2023-01-20T04:33:45.174Z,95009.03
2023-01-20T04:34:48.003Z,95012.50
2023-01-20T04:35:51.234Z,95011.72
2023-01-20T04:36:54.273Z,95018.66
2023-01-20T04:37:56.162Z,95017.91
2023-01-20T04:38:59.087Z,95018.66
2023-01-20T04:40:02.179Z,95019.78
2023-01-20T04:41:05.182Z,95031.34
2023-01-20T04:42:07.064Z,95017.09
2023-01-20T04:43:12.111Z,95017.09
2023-01-20T04:44:14.066Z,95022.47
2023-01-20T04:45:17.931Z,95022.47
2023-01-20T04:46:19.817Z,95020.97
2023-01-20T04:47:22.718Z,95030.56
2023-01-20T04:48:24.618Z,95031.72
2023-01-20T04:49:27.567Z,95030.97
2023-01-20T04:50:29.546Z,95037.88
2023-01-20T04:51:34.842Z,95029.03
2023-01-20T04:52:36.944Z,95042.50
2023-01-20T04:53:39.890Z,95025.56
2023-01-20T04:54:41.808Z,95029.44
2023-01-20T04:55:44.761Z,95040.19
2023-01-20T04:56:48.217Z,95030.22
2023-01-20T04:57:51.289Z,95029.44
2023-01-20T04:58:53.185Z,95044.06
2023-01-20T04:59:56.148Z,95034.44
2023-01-20T05:01:01.569Z,95041.00
2023-01-20T05:02:04.503Z,95032.91
2023-01-20T05:03:06.479Z,95038.63
2023-01-20T05:04:09.392Z,95038.63
2023-01-20T05:05:11.348Z,95049.41
2023-01-20T05:06:14.755Z,95050.22
2023-01-20T05:07:18.189Z,95050.22
2023-01-20T05:08:21.362Z,95056.34
2023-01-20T05:09:23.208Z,95057.13
2023-01-20T05:10:26.111Z,95056.34
2023-01-20T05:11:28.048Z,95063.28
2023-01-20T05:12:31.501Z,95057.88
2023-01-20T05:13:35.636Z,95063.28
2023-01-20T05:14:38.500Z,95068.66
2023-01-20T05:15:40.627Z,95069.44
2023-01-20T05:16:43.522Z,95064.06
2023-01-20T05:17:45.394Z,95059.44
2023-01-20T05:18:48.448Z,95059.44
2023-01-20T05:19:50.378Z,95065.59
2023-01-20T05:20:53.524Z,95066.38
2023-01-20T05:21:55.411Z,95066.38
2023-01-20T05:23:01.366Z,95073.31
2023-01-20T05:24:03.891Z,95066.38
2023-01-20T05:25:07.660Z,95067.94
2023-01-20T05:26:11.376Z,95073.31
2023-01-20T05:27:14.318Z,95077.91
2023-01-20T05:28:16.334Z,95077.91
2023-01-20T05:29:19.233Z,95084.09
2023-01-20T05:30:21.576Z,95077.91
2023-01-20T05:31:24.553Z,95085.63
2023-01-20T05:32:26.542Z,95078.69
2023-01-20T05:33:29.369Z,95083.28
2023-01-20T05:34:31.297Z,95089.47
2023-01-20T05:35:34.221Z,95089.47
2023-01-20T05:36:36.267Z,95090.59
2023-01-20T05:37:39.451Z,95086.00
2023-01-20T05:38:43.004Z,95094.50
2023-01-20T05:39:45.984Z,95089.47
2023-01-20T05:40:47.875Z,95086.38
2023-01-20T05:41:50.814Z,95100.97
2023-01-20T05:42:52.730Z,95101.78
2023-01-20T05:43:55.804Z,95095.63
2023-01-20T05:44:57.779Z,95097.16
2023-01-20T05:46:00.720Z,95094.84
2023-01-20T05:47:02.698Z,95093.69
2023-01-20T05:48:06.456Z,95097.56
2023-01-20T05:49:11.079Z,95100.25
2023-01-20T05:50:14.080Z,95104.84
2023-01-20T05:51:16.108Z,95104.06
2023-01-20T05:52:19.061Z,95105.63
2023-01-20T05:53:21.364Z,95109.44
2023-01-20T05:54:26.178Z,95106.75
2023-01-20T05:55:28.167Z,95106.75
2023-01-20T05:56:31.086Z,95109.44
2023-01-20T05:57:33.050Z,95107.91
2023-01-20T05:58:36.035Z,95109.81
2023-01-20T05:59:37.920Z,95110.97
2023-01-20T06:00:40.815Z,95112.09
2023-01-20T06:01:43.226Z,95110.19
2023-01-20T06:02:46.306Z,95115.56
2023-01-20T06:03:48.386Z,95120.19
2023-01-20T06:04:51.411Z,95124.78
2023-01-20T06:05:59.217Z,95118.66
2023-01-20T06:07:02.117Z,95117.97
2023-01-20T06:08:04.226Z,95123.72
2023-01-20T06:09:07.630Z,95124.31
2023-01-20T06:10:13.193Z,95115.06
2023-01-20T06:11:15.281Z,95125.84
2023-01-20T06:12:18.211Z,95121.22
2023-01-20T06:13:20.081Z,95123.88
2023-01-20T06:14:22.948Z,95127.34
2023-01-20T06:15:25.486Z,95121.50
2023-01-20T06:16:29.764Z,95117.66
2023-01-20T06:17:32.956Z,95120.31
2023-01-20T06:18:34.992Z,95117.59
2023-01-20T06:19:37.950Z,95119.13
2023-01-20T06:20:39.834Z,95123.34
2023-01-20T06:21:43.023Z,95115.63
2023-01-20T06:22:45.950Z,95126.78
2023-01-20T06:23:48.861Z,95122.91
2023-01-20T06:24:50.809Z,95120.63
2023-01-20T06:26:01.010Z,95120.97
2023-01-20T06:27:03.027Z,95131.75
2023-01-20T06:28:06.182Z,95130.19
2023-01-20T06:29:08.040Z,95132.50
2023-01-20T06:30:12.250Z,95129.81
2023-01-20T06:31:17.106Z,95133.63
2023-01-20T06:32:19.445Z,95135.56
2023-01-20T06:33:22.341Z,95140.97
2023-01-20T06:34:24.252Z,95131.75
2023-01-20T06:35:27.628Z,95139.84
2023-01-20T06:36:29.589Z,95140.19
2023-01-20T06:37:32.490Z,95149.38
2023-01-20T06:38:35.590Z,95142.13
2023-01-20T06:39:38.824Z,95142.88
2023-01-20T06:40:40.678Z,95146.28
2023-01-20T06:41:45.069Z,95151.69
2023-01-20T06:42:46.966Z,95149.00
2023-01-20T06:43:50.227Z,95151.69
2023-01-20T06:44:52.152Z,95158.22
2023-01-20T06:45:59.162Z,95155.53
2023-01-20T06:47:02.021Z,95153.97
2023-01-20T06:48:04.367Z,95155.53
2023-01-20T06:49:07.370Z,95155.53
2023-01-20T06:50:10.096Z,95163.63
2023-01-20T06:51:15.127Z,95163.63
2023-01-20T06:52:16.994Z,95166.31
2023-01-20T06:53:20.164Z,95163.63
2023-01-20T06:54:23.418Z,95167.44
2023-01-20T06:55:25.333Z,95168.59
2023-01-20T06:56:28.327Z,95170.13
2023-01-20T06:57:32.527Z,95162.44
2023-01-20T06:58:34.521Z,95171.66
2023-01-20T06:59:37.388Z,95172.44
2023-01-20T07:00:39.322Z,95171.66
2023-01-20T07:01:42.344Z,95170.88
2023-01-20T07:02:44.426Z,95171.66
2023-01-20T07:03:47.308Z,95178.97
2023-01-20T07:04:52.777Z,95178.97
2023-01-20T07:05:58.622Z,95177.03
2023-01-20T07:07:01.888Z,95182.41
2023-01-20T07:08:03.970Z,95187.78
2023-01-20T07:09:09.029Z,95181.66
2023-01-20T07:10:13.234Z,95192.41
2023-01-20T07:11:16.122Z,95185.91
2023-01-20T07:12:19.009Z,95190.09
2023-01-20T07:13:22.502Z,95190.09
2023-01-20T07:14:25.329Z,95183.94
2023-01-20T07:15:27.156Z,95199.31
2023-01-20T07:16:30.639Z,95188.56
2023-01-20T07:17:32.487Z,95195.84
2023-01-20T07:18:35.879Z,95207.75
2023-01-20T07:19:37.838Z,95195.09
2023-01-20T07:20:40.804Z,95197.00
2023-01-20T07:21:42.731Z,95200.84
2023-01-20T07:22:45.538Z,95206.22
2023-01-20T07:23:48.981Z,95201.59
2023-01-20T07:24:51.920Z,95207.00
2023-01-20T07:26:00.797Z,95200.84
2023-01-20T07:27:03.744Z,95208.56
2023-01-20T07:28:05.986Z,95212.00
2023-01-20T07:29:10.527Z,95214.72
2023-01-20T07:30:12.796Z,95216.25
2023-01-20T07:31:18.143Z,95210.84
2023-01-20T07:32:20.429Z,95210.84
2023-01-20T07:33:23.343Z,95218.94
2023-01-20T07:34:26.513Z,95221.63
2023-01-20T07:35:28.444Z,95216.25
2023-01-20T07:36:31.380Z,95219.31
2023-01-20T07:37:33.347Z,95223.19
2023-01-20T07:38:36.925Z,95220.91
2023-01-20T07:39:40.839Z,95223.19
2023-01-20T07:40:43.082Z,95232.38
2023-01-20T07:41:48.822Z,95231.63
2023-01-20T07:42:52.092Z,95227.00
2023-01-20T07:43:55.297Z,95225.47
2023-01-20T07:44:58.523Z,95238.94
2023-01-20T07:46:03.040Z,95230.09
2023-01-20T07:47:06.032Z,95237.38
2023-01-20T07:48:08.256Z,95235.47
2023-01-20T07:49:12.510Z,95239.28
2023-01-20T07:50:15.535Z,95234.69
2023-01-20T07:51:19.059Z,95236.25
2023-01-20T07:52:21.027Z,95240.06
2023-01-20T07:53:23.893Z,95240.84
2023-01-20T07:54:26.882Z,95235.47
2023-01-20T07:55:29.041Z,95247.78
2023-01-20T07:56:32.245Z,95241.63
2023-01-20T07:57:35.148Z,95249.69
2023-01-20T07:58:38.628Z,95238.16
2023-01-20T07:59:41.580Z,95243.56
2023-01-20T08:00:48.648Z,95246.25
2023-01-20T08:01:51.635Z,95251.63
2023-01-20T08:02:53.604Z,95251.25
2023-01-20T08:03:56.827Z,95250.47
2023-01-20T08:04:58.713Z,95242.41
2023-01-20T08:06:03.986Z,95253.94
2023-01-20T08:07:06.836Z,95248.53
2023-01-20T08:08:09.735Z,95249.69
2023-01-20T08:09:12.290Z,95254.69
2023-01-20T08:10:15.155Z,95248.53
2023-01-20T08:11:20.132Z,95256.63
2023-01-20T08:12:23.785Z,95256.63
2023-01-20T08:13:25.647Z,95253.94
2023-01-20T08:14:28.558Z,95260.09
2023-01-20T08:15:30.485Z,95255.09
2023-01-20T08:16:34.732Z,95262.00
2023-01-20T08:17:37.575Z,95254.69
2023-01-20T08:18:39.846Z,95256.25
2023-01-20T08:19:42.790Z,95258.94
2023-01-20T08:20:45.740Z,95260.13
2023-01-20T08:21:48.633Z,95263.56
2023-01-20T08:22:50.623Z,95262.78
2023-01-20T08:23:55.695Z,95264.69
2023-01-20T08:24:57.604Z,95267.38
2023-01-20T08:26:02.106Z,95272.78
2023-01-20T08:27:05.035Z,95270.09
2023-01-20T08:28:06.900Z,95271.66
2023-01-20T08:29:10.546Z,95273.19
2023-01-20T08:30:13.178Z,95277.03
2023-01-20T08:31:18.168Z,95283.94
2023-01-20T08:32:22.756Z,95275.88
2023-01-20T08:33:24.734Z,95282.81
2023-01-20T08:34:27.731Z,95282.81
2023-01-20T08:35:30.739Z,95278.22
2023-01-20T08:36:34.951Z,95282.81
2023-01-20T08:37:38.004Z,95280.91
2023-01-20T08:38:41.615Z,95281.66
2023-01-20T08:39:44.595Z,95280.50
2023-01-20T08:40:47.625Z,95288.59
2023-01-20T08:41:51.932Z,95283.19
2023-01-20T08:42:53.868Z,95283.19
2023-01-20T08:43:57.104Z,95284.00
2023-01-20T08:45:00.150Z,95292.84
2023-01-20T08:46:06.501Z,95287.47
2023-01-20T08:47:09.480Z,95290.16
2023-01-20T08:48:12.797Z,95294.38
2023-01-20T08:49:18.021Z,95295.53
2023-01-20T08:50:22.622Z,95298.63
2023-01-20T08:51:28.372Z,95298.63
2023-01-20T08:52:31.279Z,95301.34
2023-01-20T08:53:33.662Z,95301.34
2023-01-20T08:54:36.545Z,95300.22
2023-01-20T08:55:38.412Z,95304.03
2023-01-20T08:56:41.466Z,95304.03
2023-01-20T08:57:43.369Z,95298.63
2023-01-20T08:58:46.759Z,95309.03
2023-01-20T08:59:50.758Z,95302.88
2023-01-20T09:00:52.640Z,95309.41
2023-01-20T09:01:55.556Z,95304.78
2023-01-20T09:02:58.491Z,95304.78
2023-01-20T09:04:06.181Z,95304.03
2023-01-20T09:05:10.673Z,95306.72
2023-01-20T09:06:13.957Z,95310.94
2023-01-20T09:07:17.409Z,95313.63
2023-01-20T09:08:20.632Z,95310.94
2023-01-20T09:09:23.740Z,95320.59
2023-01-20T09:10:25.700Z,95324.03
2023-01-20T09:11:28.693Z,95312.50
2023-01-20T09:12:31.579Z,95318.25
2023-01-20T09:13:33.733Z,95321.34
2023-01-20T09:14:36.691Z,95330.56
2023-01-20T09:15:38.892Z,95327.09
2023-01-20T09:16:41.882Z,95320.94
2023-01-20T09:17:43.926Z,95332.47
2023-01-20T09:18:46.864Z,95329.78
2023-01-20T09:19:51.788Z,95329.44
2023-01-20T09:20:53.779Z,95334.03
2023-01-20T09:21:57.325Z,95325.97
2023-01-20T09:23:01.973Z,95334.03
2023-01-20T09:24:05.549Z,95329.44
2023-01-20T09:25:09.780Z,95334.03
2023-01-20T09:26:14.498Z,95334.81
2023-01-20T09:27:21.192Z,95335.59
2023-01-20T09:28:23.082Z,95330.19
2023-01-20T09:29:26.061Z,95345.22
2023-01-20T09:30:28.230Z,95340.97
2023-01-20T09:31:31.254Z,95338.28
2023-01-20T09:32:34.223Z,95338.28
2023-01-20T09:33:39.159Z,95340.97
2023-01-20T09:34:42.095Z,95338.28
2023-01-20T09:35:45.620Z,95347.91
2023-01-20T09:36:51.812Z,95345.22
2023-01-20T09:38:12.422Z,95344.06
2023-01-20T09:39:33.387Z,95352.91
2023-01-20T09:40:59.759Z,95353.31
2023-01-20T09:42:30.614Z,95356.78
2023-01-20T09:43:57.287Z,95364.88
2023-01-20T09:45:24.867Z,95358.72
2023-01-20T09:46:36.369Z,95364.09
2023-01-20T09:47:43.609Z,95361.75
2023-01-20T09:49:13.877Z,95364.47
2023-01-20T09:50:44.932Z,95364.47
2023-01-20T09:52:16.990Z,95361.75
2023-01-20T09:53:37.780Z,95365.63
2023-01-20T09:54:46.899Z,95368.31
2023-01-20T09:55:52.528Z,95377.16
2023-01-20T09:57:00.403Z,95365.25
2023-01-20T09:58:14.775Z,95363.34
2023-01-20T09:59:23.155Z,95363.34
2023-01-20T10:00:31.453Z,95363.34
2023-01-20T10:01:38.526Z,95370.25
2023-01-20T10:02:44.679Z,95370.25
2023-01-20T10:03:54.468Z,95364.88
2023-01-20T10:05:04.048Z,95361.75
2023-01-20T10:06:12.573Z,95368.72
2023-01-20T10:07:24.689Z,95363.34
2023-01-20T10:08:33.715Z,95364.88
2023-01-20T10:09:41.760Z,95371.06
2023-01-20T10:10:50.396Z,95371.06
2023-01-20T10:11:59.960Z,95367.56
2023-01-20T10:13:07.755Z,95363.75
2023-01-20T10:14:19.634Z,95367.97
2023-01-20T10:15:26.611Z,95364.16
2023-01-20T10:16:36.056Z,95365.69
2023-01-20T10:17:43.893Z,95373.41
2023-01-20T10:18:52.963Z,95370.72
2023-01-20T10:20:04.037Z,95378.41
2023-01-20T10:21:12.410Z,95370.31
2023-01-20T10:22:23.514Z,95368.78
2023-01-20T10:23:31.360Z,95367.63
2023-01-20T10:24:39.017Z,95371.91
2023-01-20T10:25:50.791Z,95367.28
2023-01-20T10:26:57.205Z,95363.44
2023-01-20T10:28:09.853Z,95373.06
2023-01-20T10:29:18.854Z,95364.22
2023-01-20T10:30:24.836Z,95370.38
2023-01-20T10:31:31.194Z,95366.16
2023-01-20T10:32:38.829Z,95374.22
2023-01-20T10:33:45.252Z,95368.03
2023-01-20T10:34:52.034Z,95372.31
2023-01-20T10:35:58.731Z,95374.22
2023-01-20T10:37:06.935Z,95364.22
2023-01-20T10:38:23.826Z,95371.91
2023-01-20T10:39:33.797Z,95371.16
2023-01-20T10:40:43.198Z,95367.69
2023-01-20T10:41:50.640Z,95376.53
2023-01-20T10:42:57.515Z,95382.69
2023-01-20T10:44:01.355Z,95374.59
2023-01-20T10:45:04.534Z,95374.59
2023-01-20T10:46:24.651Z,95376.53
2023-01-20T10:47:42.806Z,95376.94
2023-01-20T10:49:03.102Z,95370.03
2023-01-20T10:50:32.969Z,95371.19
2023-01-20T10:51:46.678Z,95373.13
2023-01-20T10:53:33.546Z,95375.81
2023-01-20T10:54:47.097Z,95377.34
2023-01-20T10:56:06.998Z,95370.78
2023-01-20T10:57:15.168Z,95379.63
2023-01-20T10:58:25.281Z,95372.72
2023-01-20T10:59:32.227Z,95378.09
2023-01-20T11:00:36.715Z,95378.09
2023-01-20T11:01:38.763Z,95371.91
2023-01-20T11:02:42.617Z,95379.63
2023-01-20T11:03:49.200Z,95381.91
2023-01-20T11:04:58.801Z,95379.22
2023-01-20T11:06:01.292Z,95375.00
2023-01-20T11:07:08.411Z,95382.69
2023-01-20T11:08:16.762Z,95374.59
2023-01-20T11:09:25.207Z,95378.09
2023-01-20T11:10:31.155Z,95367.31
2023-01-20T11:11:34.209Z,95368.44
2023-01-20T11:12:40.098Z,95376.53
2023-01-20T11:13:43.082Z,95376.53
2023-01-20T11:15:01.502Z,95378.09
2023-01-20T11:16:11.440Z,95376.94
2023-01-20T11:17:18.925Z,95379.22
2023-01-20T11:18:27.983Z,95377.31
2023-01-20T11:19:48.417Z,95380.00
2023-01-20T11:20:56.109Z,95379.63
2023-01-20T11:22:12.918Z,95377.72
2023-01-20T11:23:25.934Z,95376.94
2023-01-20T11:24:41.813Z,95374.66
2023-01-20T11:25:54.166Z,95377.34
2023-01-20T11:42:44.915Z,95379.69
2023-01-20T11:43:49.018Z,95372.78
2023-01-20T11:44:52.510Z,95372.00
2023-01-20T11:46:16.253Z,95376.59
2023-01-20T11:47:25.126Z,95384.69
2023-01-20T11:48:28.015Z,95373.56
2023-01-20T11:49:30.887Z,95378.16
2023-01-20T11:50:35.839Z,95372.78
2023-01-20T11:51:46.510Z,95370.09
2023-01-20T11:52:48.502Z,95370.84
2023-01-20T11:53:51.640Z,95373.56
2023-01-20T11:55:07.945Z,95376.25
2023-01-20T11:56:19.180Z,95381.63
2023-01-20T11:57:21.388Z,95379.72
2023-01-20T11:58:28.078Z,95382.41
2023-01-20T11:59:33.196Z,95380.88
2023-01-20T12:00:40.858Z,95374.31
2023-01-20T12:01:57.426Z,95374.31
2023-01-20T12:03:02.334Z,95378.16
2023-01-20T12:04:28.770Z,95384.69
2023-01-20T12:05:38.571Z,95374.72
2023-01-20T12:06:52.922Z,95378.53
2023-01-20T12:07:56.690Z,95377.00
2023-01-20T12:09:03.598Z,95375.06
2023-01-20T12:10:18.369Z,95377.75
2023-01-20T12:11:26.743Z,95381.22
2023-01-20T12:12:34.207Z,95377.75
2023-01-20T12:13:58.539Z,95380.47
2023-01-20T12:15:05.990Z,95379.69
2023-01-20T12:16:09.337Z,95379.69
2023-01-20T12:17:20.263Z,95387.75
2023-01-20T12:18:33.054Z,95388.53
2023-01-20T12:19:44.403Z,95386.19
2023-01-20T12:20:55.887Z,95383.50
2023-01-20T12:22:06.623Z,95387.38
2023-01-20T12:23:21.396Z,95378.13
2023-01-20T12:24:50.942Z,95390.47
2023-01-20T12:25:57.756Z,95391.22
2023-01-20T12:27:00.803Z,95391.22
2023-01-20T12:28:11.286Z,95388.53
2023-01-20T12:29:22.229Z,95385.84
2023-01-20T12:30:41.334Z,95394.34
2023-01-20T12:31:48.873Z,95387.38
2023-01-20T12:32:51.967Z,95388.19
2023-01-20T12:34:03.538Z,95390.88
2023-01-20T12:35:05.925Z,95395.88
2023-01-20T12:36:33.167Z,95396.63
2023-01-20T12:37:44.712Z,95399.75
2023-01-20T12:39:08.219Z,95398.97
2023-01-20T12:40:23.555Z,95393.94
2023-01-20T12:41:43.568Z,95397.44
2023-01-20T12:43:19.553Z,95400.13
2023-01-20T12:44:29.308Z,95398.19
2023-01-20T12:45:54.373Z,95397.44
2023-01-20T12:47:05.988Z,95392.03
2023-01-20T12:48:20.925Z,95402.03
2023-01-20T12:49:43.617Z,95401.25
2023-01-20T12:50:59.036Z,95398.56
2023-01-20T12:52:15.560Z,95413.59
2023-01-20T12:53:31.417Z,95398.97
2023-01-20T12:54:49.360Z,95402.81
2023-01-20T12:56:01.959Z,95401.72
2023-01-20T12:57:17.109Z,95402.81
2023-01-20T12:58:37.012Z,95403.94
2023-01-20T12:59:48.606Z,95402.03
2023-01-20T13:01:25.628Z,95398.94
2023-01-20T13:02:48.352Z,95405.88
2023-01-20T13:04:06.127Z,95409.38
2023-01-20T13:05:44.608Z,95404.78
2023-01-20T13:07:04.243Z,95399.38
2023-01-20T13:08:15.006Z,95401.31
2023-01-20T13:09:39.281Z,95401.31
2023-01-20T13:10:59.039Z,95405.94
2023-01-20T13:12:15.268Z,95408.63
2023-01-20T13:13:28.675Z,95405.94
2023-01-20T13:14:40.663Z,95409.75